createdAt,value
2022-10-27T00:03:38.717Z,3.40
2022-10-27T00:13:38.889Z,3.70
2022-10-27T00:23:38.695Z,3.70
2022-10-27T00:33:38.649Z,3.50
2022-10-27T00:43:38.564Z,3.20
2022-10-27T00:53:38.495Z,3.10
2022-10-27T01:03:38.480Z,3.10
2022-10-27T01:13:38.457Z,3.50
2022-10-27T01:23:38.420Z,3.40
2022-10-27T01:33:38.339Z,3.50
2022-10-27T01:43:38.252Z,3.30
2022-10-27T01:53:38.216Z,3.50
2022-10-27T02:03:37.977Z,3.50
2022-10-27T02:13:38.100Z,3.50
2022-10-27T02:23:37.981Z,3.60
2022-10-27T02:33:37.845Z,4.10
2022-10-27T02:43:37.744Z,3.60
2022-10-27T02:53:37.813Z,3.50
2022-10-27T03:03:37.606Z,3.50
2022-10-27T03:13:37.368Z,3.50
2022-10-27T03:23:37.437Z,3.50
2022-10-27T03:33:37.580Z,3.50
2022-10-27T03:43:37.170Z,3.30
2022-10-27T03:53:37.237Z,3.30
2022-10-27T04:03:37.020Z,3.30
2022-10-27T04:13:37.236Z,3.30
2022-10-27T04:23:36.860Z,3.50
2022-10-27T04:33:36.907Z,3.40
2022-10-27T04:43:36.661Z,3.30
2022-10-27T04:53:36.756Z,3.30
2022-10-27T05:03:36.540Z,3.30
2022-10-27T05:13:36.750Z,3.70
2022-10-27T05:23:36.417Z,3.10
2022-10-27T05:33:36.411Z,3.30
2022-10-27T05:43:38.060Z,2.80
2022-10-27T05:53:36.099Z,2.90
2022-10-27T06:03:36.018Z,2.90
2022-10-27T06:13:36.051Z,2.90
2022-10-27T06:23:35.647Z,3.30
2022-10-27T06:33:35.693Z,3.20
2022-10-27T06:43:35.604Z,3.30
2022-10-27T06:53:35.391Z,3.10
2022-10-27T07:03:35.498Z,2.80
2022-10-27T07:13:35.483Z,4.00
2022-10-27T07:23:35.356Z,3.30
2022-10-27T07:33:35.530Z,3.20
2022-10-27T07:43:35.384Z,3.20
2022-10-27T07:53:35.546Z,3.00
2022-10-27T08:03:35.566Z,3.00
2022-10-27T08:13:37.267Z,3.20
2022-10-27T08:23:35.385Z,3.20
2022-10-27T08:33:35.843Z,3.20
2022-10-27T08:43:35.495Z,3.10
2022-10-27T08:53:35.735Z,3.30
2022-10-27T09:03:35.853Z,3.20
2022-10-27T09:13:41.023Z,3.00
2022-10-27T09:23:40.637Z,3.30
2022-10-27T09:33:40.111Z,3.60
2022-10-27T09:43:39.742Z,3.40
2022-10-27T09:53:39.542Z,3.10
2022-10-27T10:03:39.004Z,3.50
2022-10-27T10:13:38.648Z,3.80
2022-10-27T10:23:38.446Z,3.90
2022-10-27T10:33:43.632Z,3.60
2022-10-27T10:43:43.198Z,4.10
2022-10-27T10:53:42.823Z,3.70
2022-10-27T11:03:42.458Z,4.10
2022-10-27T11:13:42.106Z,4.10
2022-10-27T11:23:41.575Z,4.20
2022-10-27T11:33:41.567Z,4.10
2022-10-27T11:43:48.954Z,4.20
2022-10-27T11:53:46.172Z,4.10
2022-10-27T12:03:48.004Z,4.40
2022-10-27T12:13:45.455Z,4.20
2022-10-27T12:23:45.240Z,4.60
2022-10-27T12:33:50.377Z,4.40
2022-10-27T12:43:50.005Z,4.60
2022-10-27T12:53:49.629Z,4.30
2022-10-27T13:03:49.394Z,4.40
2022-10-27T13:13:48.751Z,4.80
2022-10-27T13:23:54.035Z,4.60
2022-10-27T13:33:53.550Z,4.60
2022-10-27T13:43:54.817Z,4.50
2022-10-27T13:53:52.949Z,4.60
2022-10-27T14:03:52.371Z,4.60
2022-10-27T14:13:57.820Z,4.80
2022-10-27T14:23:57.145Z,4.80
2022-10-27T14:33:57.090Z,4.90
2022-10-27T14:43:56.538Z,5.10
2022-10-27T14:53:56.386Z,4.90
2022-10-27T15:04:01.316Z,4.90
2022-10-27T15:14:00.796Z,4.90
2022-10-27T15:24:00.548Z,4.90
2022-10-27T15:34:00.343Z,5.30
2022-10-27T15:43:59.836Z,5.60
2022-10-27T15:54:04.985Z,4.90
2022-10-27T16:04:04.499Z,4.90
2022-10-27T16:14:04.093Z,5.30
2022-10-27T16:24:03.711Z,4.80
2022-10-27T16:34:03.349Z,4.90
2022-10-27T16:44:08.484Z,4.80
2022-10-27T16:54:08.106Z,5.30
2022-10-27T17:04:08.102Z,5.30
2022-10-27T17:14:07.360Z,5.20
2022-10-27T17:24:06.986Z,5.10
2022-10-27T17:34:12.361Z,5.30
2022-10-27T17:44:11.754Z,5.10
2022-10-27T17:54:11.628Z,5.60
2022-10-27T18:04:11.187Z,5.90
2022-10-27T18:14:10.883Z,5.90
2022-10-27T18:24:10.397Z,6.00
2022-10-27T18:34:15.870Z,5.80
2022-10-27T18:44:15.182Z,6.40
2022-10-27T18:54:14.985Z,5.60
2022-10-27T19:04:14.631Z,5.90
2022-10-27T19:14:14.261Z,6.30
2022-10-27T19:24:14.145Z,5.50
2022-10-27T19:34:19.415Z,6.30
2022-10-27T19:44:19.045Z,5.70
2022-10-27T19:54:18.688Z,5.80
2022-10-27T20:04:18.156Z,6.10
2022-10-27T20:14:18.120Z,6.20
2022-10-27T20:24:17.553Z,5.70
2022-10-27T20:34:22.549Z,6.30
2022-10-27T20:44:22.175Z,6.00
2022-10-27T20:54:21.974Z,6.40
2022-10-27T21:04:21.446Z,6.40
2022-10-27T21:14:21.240Z,6.00
2022-10-27T21:24:20.851Z,6.60
2022-10-27T21:34:20.637Z,6.20
2022-10-27T21:44:25.771Z,6.10
2022-10-27T21:54:25.417Z,6.40
2022-10-27T22:04:25.860Z,6.10
2022-10-27T22:14:27.098Z,6.40
2022-10-27T22:24:24.708Z,6.70
2022-10-27T22:34:23.993Z,5.70
2022-10-27T22:44:23.610Z,5.70
2022-10-27T22:54:23.862Z,5.60
2022-10-27T23:04:28.865Z,5.50
2022-10-27T23:14:30.273Z,5.90
2022-10-27T23:24:28.157Z,6.20
2022-10-27T23:34:28.158Z,6.40
2022-10-27T23:44:27.416Z,5.70
2022-10-27T23:54:27.193Z,6.00
